createdAt,value
2017-03-26T00:00:00.335Z,73677
2017-03-26T00:00:10.138Z,73677
2017-03-26T00:00:20.227Z,73677
2017-03-26T00:00:30.028Z,73678
2017-03-26T00:00:39.836Z,73676
2017-03-26T00:00:49.929Z,73677
2017-03-26T00:01:00.028Z,73674
2017-03-26T00:01:10.165Z,73675
2017-03-26T00:01:20.256Z,73674
2017-03-26T00:01:30.060Z,73677
2017-03-26T00:01:40.150Z,73676
2017-03-26T00:01:49.962Z,73675
2017-03-26T00:02:00.011Z,73673
2017-03-26T00:02:09.821Z,73678
2017-03-26T00:02:19.626Z,73673
2017-03-26T00:02:29.724Z,73673
2017-03-26T00:02:39.823Z,73673
2017-03-26T00:02:49.637Z,73674
2017-03-26T00:02:59.449Z,73678
2017-03-26T00:03:09.549Z,73671
2017-03-26T00:03:19.640Z,73673
2017-03-26T00:03:29.450Z,73674
2017-03-26T00:03:39.565Z,73673
2017-03-26T00:03:49.668Z,73674
2017-03-26T00:03:59.764Z,73674
2017-03-26T00:04:09.279Z,73675
2017-03-26T00:04:19.377Z,73676
2017-03-26T00:04:29.476Z,73675
2017-03-26T00:04:39.276Z,73675
2017-03-26T00:04:49.375Z,73674
2017-03-26T00:04:59.475Z,73671
2017-03-26T00:05:09.574Z,73673
2017-03-26T00:05:19.389Z,73673
2017-03-26T00:05:29.482Z,73672
2017-03-26T00:05:39.572Z,73670
2017-03-26T00:05:49.662Z,73671
2017-03-26T00:05:59.753Z,73670
2017-03-26T00:06:09.842Z,73665
2017-03-26T00:06:19.647Z,73670
2017-03-26T00:06:29.451Z,73670
2017-03-26T00:06:39.544Z,73668
2017-03-26T00:06:49.362Z,73669
2017-03-26T00:06:59.455Z,73667
2017-03-26T00:07:09.557Z,73668
2017-03-26T00:07:19.651Z,73666
2017-03-26T00:07:29.454Z,73668
2017-03-26T00:07:39.547Z,73669
2017-03-26T00:07:49.648Z,73669
2017-03-26T00:07:59.751Z,73669
2017-03-26T00:08:09.552Z,73667
2017-03-26T00:08:19.364Z,73667
2017-03-26T00:08:29.460Z,73665
2017-03-26T00:08:39.559Z,73669
2017-03-26T00:08:49.370Z,73666
2017-03-26T00:08:58.903Z,73664
2017-03-26T00:09:08.995Z,73668
2017-03-26T00:09:19.093Z,73664
2017-03-26T00:09:29.187Z,73670
2017-03-26T00:09:39.280Z,73665
2017-03-26T00:09:49.376Z,73666
2017-03-26T00:09:59.185Z,73672
2017-03-26T00:10:08.700Z,73665
2017-03-26T00:10:18.502Z,73668
2017-03-26T00:10:28.589Z,73669
2017-03-26T00:10:38.388Z,73668
2017-03-26T00:10:48.477Z,73668
2017-03-26T00:10:58.569Z,73663
2017-03-26T00:11:08.377Z,73668
2017-03-26T00:11:18.473Z,73665
2017-03-26T00:11:28.279Z,73666
2017-03-26T00:11:38.077Z,73667
2017-03-26T00:11:48.220Z,73666
2017-03-26T00:11:58.312Z,73670
2017-03-26T00:12:08.405Z,73666
2017-03-26T00:12:18.211Z,73671
2017-03-26T00:12:28.014Z,73669
2017-03-26T00:12:38.113Z,73668
2017-03-26T00:12:48.209Z,73670
2017-03-26T00:12:58.020Z,73671
2017-03-26T00:13:08.116Z,73668
2017-03-26T00:13:18.206Z,73667
2017-03-26T00:13:28.018Z,73668
2017-03-26T00:13:37.827Z,73667
2017-03-26T00:13:47.924Z,73668
2017-03-26T00:13:58.080Z,73669
2017-03-26T00:14:08.176Z,73661
2017-03-26T00:14:18.324Z,73667
2017-03-26T00:14:28.137Z,73668
2017-03-26T00:14:38.225Z,73672
2017-03-26T00:14:48.317Z,73668
2017-03-26T00:14:58.422Z,73668
2017-03-26T00:15:08.227Z,73664
2017-03-26T00:15:18.317Z,73665
2017-03-26T00:15:28.120Z,73672
2017-03-26T00:15:38.223Z,73662
2017-03-26T00:15:48.035Z,73670
2017-03-26T00:15:58.124Z,73667
2017-03-26T00:16:08.258Z,73666
2017-03-26T00:16:18.357Z,73666
2017-03-26T00:16:28.169Z,73662
2017-03-26T00:16:37.968Z,73670
2017-03-26T00:16:48.065Z,73667
2017-03-26T00:16:58.153Z,73666
2017-03-26T00:17:08.243Z,73669
2017-03-26T00:17:18.332Z,73663
2017-03-26T00:17:28.131Z,73669
2017-03-26T00:17:37.987Z,73667
2017-03-26T00:17:48.079Z,73664
2017-03-26T00:17:58.175Z,73667
2017-03-26T00:18:07.991Z,73661
2017-03-26T00:18:17.801Z,73659
2017-03-26T00:18:27.904Z,73665
2017-03-26T00:18:37.992Z,73663
2017-03-26T00:18:48.091Z,73662
2017-03-26T00:18:58.179Z,73657
2017-03-26T00:19:08.290Z,73662
2017-03-26T00:19:18.099Z,73666
2017-03-26T00:19:27.908Z,73663
2017-03-26T00:19:38.002Z,73662
2017-03-26T00:19:48.105Z,73661
2017-03-26T00:19:58.196Z,73661
2017-03-26T00:20:08.290Z,73659
2017-03-26T00:20:18.385Z,73664
2017-03-26T00:20:28.183Z,73661
2017-03-26T00:20:37.990Z,73661
2017-03-26T00:20:48.077Z,73661
2017-03-26T00:20:57.929Z,73658
2017-03-26T00:21:08.020Z,73662
2017-03-26T00:21:18.108Z,73659
2017-03-26T00:21:27.912Z,73658
2017-03-26T00:21:38.004Z,73660
2017-03-26T00:21:48.102Z,73661
2017-03-26T00:21:57.908Z,73660
2017-03-26T00:22:07.998Z,73658
2017-03-26T00:22:17.801Z,73661
2017-03-26T00:22:27.605Z,73660
2017-03-26T00:22:37.690Z,73663
2017-03-26T00:22:47.782Z,73661
2017-03-26T00:22:57.881Z,73661
2017-03-26T00:23:07.975Z,73663
2017-03-26T00:23:18.076Z,73659
2017-03-26T00:23:28.178Z,73660
2017-03-26T00:23:38.271Z,73658
2017-03-26T00:23:48.081Z,73658
2017-03-26T00:23:58.183Z,73659
2017-03-26T00:24:08.274Z,73658
2017-03-26T00:24:18.376Z,73656
2017-03-26T00:24:28.471Z,73657
2017-03-26T00:24:38.579Z,73656
2017-03-26T00:24:48.683Z,73658
2017-03-26T00:24:58.776Z,73656
2017-03-26T00:25:08.893Z,73660
2017-03-26T00:25:18.701Z,73662
2017-03-26T00:25:28.796Z,73658
2017-03-26T00:25:38.893Z,73657
2017-03-26T00:25:48.696Z,73660
2017-03-26T00:25:58.788Z,73658
2017-03-26T00:26:08.602Z,73658
2017-03-26T00:26:18.405Z,73656
2017-03-26T00:26:28.209Z,73657
2017-03-26T00:26:38.303Z,73652
2017-03-26T00:26:48.393Z,73655
2017-03-26T00:26:58.486Z,73653
2017-03-26T00:27:08.010Z,73653
2017-03-26T00:27:18.140Z,73655
2017-03-26T00:27:28.238Z,73656
2017-03-26T00:27:38.342Z,73655
2017-03-26T00:27:48.442Z,73656
2017-03-26T00:27:58.538Z,73654
2017-03-26T00:28:08.348Z,73655
2017-03-26T00:28:18.452Z,73651
2017-03-26T00:28:28.553Z,73647
2017-03-26T00:28:38.647Z,73653
2017-03-26T00:28:48.455Z,73647
2017-03-26T00:28:58.557Z,73655
2017-03-26T00:29:08.661Z,73653
2017-03-26T00:29:18.761Z,73650
2017-03-26T00:29:28.854Z,73652
2017-03-26T00:29:38.948Z,73648
2017-03-26T00:29:49.080Z,73649
2017-03-26T00:29:59.181Z,73651
2017-03-26T00:30:08.720Z,73650
2017-03-26T00:30:18.870Z,73651
2017-03-26T00:30:28.968Z,73652
2017-03-26T00:30:39.059Z,73649
2017-03-26T00:30:49.149Z,73651
2017-03-26T00:30:58.951Z,73650
2017-03-26T00:31:09.053Z,73651
2017-03-26T00:31:19.148Z,73652
2017-03-26T00:31:29.244Z,73649
2017-03-26T00:31:39.335Z,73650
2017-03-26T00:31:48.850Z,73649
2017-03-26T00:31:58.943Z,73652
2017-03-26T00:32:08.744Z,73651
2017-03-26T00:32:18.838Z,73648
2017-03-26T00:32:28.939Z,73647
2017-03-26T00:32:39.033Z,73647
2017-03-26T00:32:49.125Z,73647
2017-03-26T00:32:59.217Z,73645
2017-03-26T00:33:09.031Z,73651
2017-03-26T00:33:19.124Z,73646
2017-03-26T00:33:29.223Z,73645
2017-03-26T00:33:38.756Z,73650
2017-03-26T00:33:48.857Z,73649
2017-03-26T00:33:58.962Z,73645
2017-03-26T00:34:09.072Z,73647
2017-03-26T00:34:19.170Z,73649
2017-03-26T00:34:29.265Z,73649
2017-03-26T00:34:39.075Z,73647
2017-03-26T00:34:49.171Z,73650
2017-03-26T00:34:59.265Z,73648
2017-03-26T00:35:08.799Z,73647
2017-03-26T00:35:18.904Z,73648
2017-03-26T00:35:28.420Z,73646
2017-03-26T00:35:38.220Z,73644
2017-03-26T00:35:48.315Z,73646
2017-03-26T00:35:58.412Z,73647
2017-03-26T00:36:08.506Z,73647
2017-03-26T00:36:18.314Z,73645
2017-03-26T00:36:28.422Z,73645
2017-03-26T00:36:38.516Z,73643
2017-03-26T00:36:48.323Z,73649
2017-03-26T00:36:58.416Z,73647
2017-03-26T00:37:08.505Z,73646
2017-03-26T00:37:18.308Z,73642
2017-03-26T00:37:28.397Z,73644
2017-03-26T00:37:38.496Z,73646
2017-03-26T00:37:48.589Z,73645
2017-03-26T00:37:58.698Z,73645
2017-03-26T00:38:08.797Z,73643
2017-03-26T00:38:18.319Z,73643
2017-03-26T00:38:28.414Z,73643
2017-03-26T00:38:38.291Z,73644
2017-03-26T00:38:48.388Z,73647
2017-03-26T00:38:58.490Z,73643
2017-03-26T00:39:08.595Z,73641
2017-03-26T00:39:18.737Z,73641
2017-03-26T00:39:28.834Z,73642
2017-03-26T00:39:38.925Z,73641
2017-03-26T00:39:49.018Z,73639
2017-03-26T00:39:59.111Z,73641
2017-03-26T00:40:09.213Z,73639
2017-03-26T00:40:19.308Z,73640
2017-03-26T00:40:28.822Z,73638
2017-03-26T00:40:38.914Z,73635
2017-03-26T00:40:49.001Z,73638
2017-03-26T00:40:59.100Z,73639
2017-03-26T00:41:09.198Z,73637
2017-03-26T00:41:19.007Z,73637
2017-03-26T00:41:28.810Z,73635
2017-03-26T00:41:38.904Z,73637
2017-03-26T00:41:48.995Z,73637
2017-03-26T00:41:59.093Z,73631
2017-03-26T00:42:09.188Z,73632
2017-03-26T00:42:19.282Z,73634
2017-03-26T00:42:29.088Z,73634
2017-03-26T00:42:39.189Z,73632
2017-03-26T00:42:49.286Z,73633
2017-03-26T00:42:59.093Z,73634
2017-03-26T00:43:09.194Z,73632
2017-03-26T00:43:19.294Z,73632
2017-03-26T00:43:28.814Z,73631
2017-03-26T00:43:38.914Z,73636
2017-03-26T00:43:48.725Z,73629
2017-03-26T00:43:58.841Z,73631
2017-03-26T00:44:08.937Z,73634
2017-03-26T00:44:18.799Z,73632
2017-03-26T00:44:28.605Z,73631
2017-03-26T00:44:38.699Z,73634
2017-03-26T00:44:48.793Z,73634
2017-03-26T00:44:58.890Z,73631
2017-03-26T00:45:08.988Z,73630
2017-03-26T00:45:19.088Z,73631
2017-03-26T00:45:28.893Z,73628
2017-03-26T00:45:38.978Z,73628
2017-03-26T00:45:49.071Z,73632
2017-03-26T00:45:59.162Z,73632
2017-03-26T00:46:09.256Z,73628
2017-03-26T00:46:19.352Z,73633
2017-03-26T00:46:29.443Z,73630
2017-03-26T00:46:39.536Z,73629
2017-03-26T00:46:49.336Z,73625
2017-03-26T00:46:59.423Z,73628
2017-03-26T00:47:09.225Z,73627
2017-03-26T00:47:19.028Z,73624
2017-03-26T00:47:29.126Z,73627
2017-03-26T00:47:39.220Z,73621
2017-03-26T00:47:49.368Z,73628
2017-03-26T00:47:59.472Z,73625
2017-03-26T00:48:09.570Z,73622
2017-03-26T00:48:19.669Z,73626
2017-03-26T00:48:29.187Z,73625
2017-03-26T00:48:39.282Z,73625
2017-03-26T00:48:49.376Z,73621
2017-03-26T00:48:59.473Z,73624
2017-03-26T00:49:09.566Z,73624
2017-03-26T00:49:19.669Z,73624
2017-03-26T00:49:29.777Z,73625
2017-03-26T00:49:39.867Z,73624
2017-03-26T00:49:49.962Z,73626
2017-03-26T00:50:00.058Z,73625
2017-03-26T00:50:10.148Z,73621
2017-03-26T00:50:20.234Z,73625
2017-03-26T00:50:30.324Z,73626
2017-03-26T00:50:40.468Z,73625
2017-03-26T00:50:50.559Z,73624
2017-03-26T00:51:00.658Z,73622
2017-03-26T00:51:10.750Z,73623
2017-03-26T00:51:20.550Z,73618
2017-03-26T00:51:30.641Z,73620
2017-03-26T00:51:40.736Z,73620
2017-03-26T00:51:50.888Z,73620
2017-03-26T00:52:00.983Z,73619
2017-03-26T00:52:11.084Z,73617
2017-03-26T00:52:20.887Z,73617
2017-03-26T00:52:30.979Z,73621
2017-03-26T00:52:40.783Z,73615
2017-03-26T00:52:50.953Z,73616
2017-03-26T00:53:01.068Z,73618
2017-03-26T00:53:11.163Z,73619
2017-03-26T00:53:21.261Z,73619
2017-03-26T00:53:31.364Z,73616
2017-03-26T00:53:41.465Z,73620
2017-03-26T00:53:51.556Z,73615
2017-03-26T00:54:01.721Z,73620
2017-03-26T00:54:11.542Z,73618
2017-03-26T00:54:21.644Z,73616
2017-03-26T00:54:31.740Z,73618
2017-03-26T00:54:41.606Z,73618
2017-03-26T00:54:51.701Z,73616
2017-03-26T00:55:01.807Z,73612
2017-03-26T00:55:11.611Z,73610
2017-03-26T00:55:21.702Z,73609
2017-03-26T00:55:31.795Z,73606
2017-03-26T00:55:41.892Z,73609
2017-03-26T00:55:51.986Z,73608
2017-03-26T00:56:01.788Z,73609
2017-03-26T00:56:11.590Z,73614
2017-03-26T00:56:21.689Z,73610
2017-03-26T00:56:31.786Z,73611
2017-03-26T00:56:41.879Z,73611
2017-03-26T00:56:51.971Z,73611
2017-03-26T00:57:02.067Z,73608
2017-03-26T00:57:12.161Z,73607
2017-03-26T00:57:21.966Z,73608
2017-03-26T00:57:32.062Z,73611
2017-03-26T00:57:42.156Z,73605
2017-03-26T00:57:52.250Z,73610
2017-03-26T00:58:02.357Z,73610
2017-03-26T00:58:12.169Z,73612
2017-03-26T00:58:22.278Z,73615
2017-03-26T00:58:32.097Z,73615
2017-03-26T00:58:42.190Z,73613
2017-03-26T00:58:52.285Z,73608
2017-03-26T00:59:02.088Z,73611
2017-03-26T00:59:12.189Z,73610
2017-03-26T00:59:22.286Z,73606
2017-03-26T00:59:32.386Z,73610
2017-03-26T00:59:42.478Z,73608
2017-03-26T00:59:52.572Z,73609
2017-03-26T01:00:02.733Z,73607
2017-03-26T01:00:12.825Z,73609
2017-03-26T01:00:22.914Z,73602
2017-03-26T01:00:33.008Z,73604
2017-03-26T01:00:43.102Z,73605
2017-03-26T01:00:53.192Z,73602
2017-03-26T01:01:03.288Z,73607
2017-03-26T01:01:13.092Z,73604
2017-03-26T01:01:23.181Z,73601
2017-03-26T01:01:33.272Z,73606
2017-03-26T01:01:43.136Z,73607
2017-03-26T01:01:53.223Z,73605
2017-03-26T01:02:03.316Z,73599
2017-03-26T01:02:13.124Z,73604
2017-03-26T01:02:22.933Z,73607
2017-03-26T01:02:32.741Z,73612
2017-03-26T01:02:42.836Z,73612
2017-03-26T01:02:52.940Z,73610
2017-03-26T01:03:03.034Z,73604
2017-03-26T01:03:13.125Z,73605
2017-03-26T01:03:23.221Z,73603
2017-03-26T01:03:33.319Z,73613
2017-03-26T01:03:43.418Z,73618
2017-03-26T01:03:53.515Z,73615
2017-03-26T01:04:03.611Z,73615
2017-03-26T01:04:13.704Z,73606
2017-03-26T01:04:23.799Z,73606
2017-03-26T01:04:33.038Z,73604
2017-03-26T01:04:43.133Z,73606
2017-03-26T01:04:53.225Z,73608
2017-03-26T01:05:03.329Z,73605
2017-03-26T01:05:13.422Z,73604
2017-03-26T01:05:23.513Z,73608
2017-03-26T01:05:33.603Z,73607
2017-03-26T01:05:43.688Z,73609
2017-03-26T01:05:53.782Z,73615
2017-03-26T01:06:03.876Z,73612
2017-03-26T01:06:13.969Z,73610
2017-03-26T01:06:24.062Z,73608
2017-03-26T01:06:33.869Z,73612
2017-03-26T01:06:43.679Z,73609
2017-03-26T01:06:53.814Z,73611
2017-03-26T01:07:03.906Z,73607
2017-03-26T01:07:13.714Z,73608
2017-03-26T01:07:23.523Z,73606
2017-03-26T01:07:33.624Z,73609
2017-03-26T01:07:43.738Z,73609
2017-03-26T01:07:53.836Z,73600
2017-03-26T01:08:03.952Z,73598
2017-03-26T01:08:14.052Z,73598
2017-03-26T01:08:24.150Z,73603
2017-03-26T01:08:34.262Z,73605
2017-03-26T01:08:44.369Z,73613
2017-03-26T01:08:54.465Z,73612
2017-03-26T01:09:04.562Z,73609
2017-03-26T01:09:14.655Z,73611
2017-03-26T01:09:24.755Z,73612
2017-03-26T01:09:34.567Z,73613
2017-03-26T01:09:44.663Z,73605
2017-03-26T01:09:54.758Z,73614
2017-03-26T01:10:04.858Z,73605
2017-03-26T01:10:14.951Z,73606
2017-03-26T01:10:25.045Z,73604
2017-03-26T01:10:35.140Z,73611
2017-03-26T01:10:44.957Z,73608
2017-03-26T01:10:55.049Z,73602
2017-03-26T01:11:05.140Z,73606
2017-03-26T01:11:15.231Z,73602
2017-03-26T01:11:25.323Z,73606
2017-03-26T01:11:35.414Z,73602
2017-03-26T01:11:45.217Z,73599
2017-03-26T01:11:55.312Z,73607
2017-03-26T01:12:05.406Z,73609
2017-03-26T01:12:15.509Z,73611
2017-03-26T01:12:25.640Z,73613
2017-03-26T01:12:35.734Z,73616
2017-03-26T01:12:45.833Z,73611
2017-03-26T01:12:55.641Z,73610
2017-03-26T01:13:05.740Z,73607
2017-03-26T01:13:15.895Z,73607
2017-03-26T01:13:25.707Z,73606
2017-03-26T01:13:35.810Z,73606
2017-03-26T01:13:45.901Z,73607
2017-03-26T01:13:56.004Z,73599
2017-03-26T01:14:06.101Z,73600
2017-03-26T01:14:16.197Z,73602
2017-03-26T01:14:26.293Z,73598
2017-03-26T01:14:36.384Z,73603
2017-03-26T01:14:46.475Z,73607
2017-03-26T01:14:56.288Z,73609
2017-03-26T01:15:06.397Z,73606
2017-03-26T01:15:16.483Z,73609
2017-03-26T01:15:26.287Z,73604
2017-03-26T01:15:36.381Z,73604
2017-03-26T01:15:46.480Z,73600
2017-03-26T01:15:56.567Z,73604
2017-03-26T01:16:06.380Z,73610
2017-03-26T01:16:15.896Z,73608
2017-03-26T01:16:25.702Z,73602
2017-03-26T01:16:35.796Z,73600
2017-03-26T01:16:45.885Z,73596
2017-03-26T01:16:55.974Z,73596
2017-03-26T01:17:05.781Z,73595
2017-03-26T01:17:15.589Z,73593
2017-03-26T01:17:25.686Z,73590
2017-03-26T01:17:35.783Z,73589
2017-03-26T01:17:45.885Z,73589
2017-03-26T01:17:55.985Z,73591
2017-03-26T01:18:05.787Z,73594
2017-03-26T01:18:15.884Z,73594
2017-03-26T01:18:25.987Z,73593
2017-03-26T01:18:36.088Z,73594
2017-03-26T01:18:45.893Z,73594
2017-03-26T01:18:55.998Z,73594
2017-03-26T01:19:06.094Z,73598
2017-03-26T01:19:16.187Z,73596
2017-03-26T01:19:26.012Z,73595
2017-03-26T01:19:35.822Z,73595
2017-03-26T01:19:45.910Z,73597
2017-03-26T01:19:56.005Z,73595
2017-03-26T01:20:05.810Z,73595
2017-03-26T01:20:15.905Z,73596
2017-03-26T01:20:26.006Z,73595
2017-03-26T01:20:35.532Z,73596
2017-03-26T01:20:45.627Z,73596
2017-03-26T01:20:55.719Z,73599
2017-03-26T01:21:05.808Z,73597
2017-03-26T01:21:15.615Z,73590
2017-03-26T01:21:25.710Z,73596
2017-03-26T01:21:35.807Z,73590
2017-03-26T01:21:45.937Z,73591
2017-03-26T01:21:56.030Z,73598
2017-03-26T01:22:06.126Z,73592
2017-03-26T01:22:16.224Z,73596
2017-03-26T01:22:26.029Z,73591
2017-03-26T01:22:35.834Z,73592
2017-03-26T01:22:45.644Z,73594
2017-03-26T01:22:55.735Z,73593
2017-03-26T01:23:05.828Z,73596
2017-03-26T01:23:15.636Z,73594
2017-03-26T01:23:25.730Z,73596
2017-03-26T01:23:35.543Z,73590
2017-03-26T01:23:45.644Z,73587
2017-03-26T01:23:55.734Z,73589
2017-03-26T01:24:05.548Z,73591
2017-03-26T01:24:15.358Z,73590
2017-03-26T01:24:25.522Z,73596
2017-03-26T01:24:35.617Z,73593
2017-03-26T01:24:45.423Z,73594
2017-03-26T01:24:55.520Z,73594
2017-03-26T01:25:05.617Z,73591
2017-03-26T01:25:15.708Z,73589
2017-03-26T01:25:25.519Z,73593
2017-03-26T01:25:35.613Z,73591
2017-03-26T01:25:45.706Z,73589
2017-03-26T01:25:55.800Z,73589
2017-03-26T01:26:05.889Z,73589
2017-03-26T01:26:15.982Z,73590
2017-03-26T01:26:26.068Z,73591
2017-03-26T01:26:35.877Z,73590
2017-03-26T01:26:45.977Z,73589
2017-03-26T01:26:55.781Z,73587
2017-03-26T01:27:05.878Z,73589
2017-03-26T01:27:15.974Z,73590
2017-03-26T01:27:25.783Z,73590
2017-03-26T01:27:35.882Z,73590
2017-03-26T01:27:45.700Z,73587
2017-03-26T01:27:55.796Z,73591
2017-03-26T01:28:05.932Z,73587
2017-03-26T01:28:16.022Z,73589
2017-03-26T01:28:25.827Z,73590
2017-03-26T01:28:35.926Z,73589
2017-03-26T01:28:46.034Z,73585
2017-03-26T01:28:56.128Z,73587
2017-03-26T01:29:06.227Z,73587
2017-03-26T01:29:16.320Z,73584
2017-03-26T01:29:26.187Z,73581
2017-03-26T01:29:36.292Z,73580
2017-03-26T01:29:46.385Z,73582
2017-03-26T01:29:56.474Z,73582
2017-03-26T01:30:06.567Z,73586
2017-03-26T01:30:16.377Z,73588
2017-03-26T01:30:26.467Z,73588
2017-03-26T01:30:36.557Z,73585
2017-03-26T01:30:46.360Z,73581
2017-03-26T01:30:56.176Z,73583
2017-03-26T01:31:06.322Z,73586
2017-03-26T01:31:16.415Z,73582
2017-03-26T01:31:26.569Z,73582
2017-03-26T01:31:36.370Z,73589
2017-03-26T01:31:46.182Z,73582
2017-03-26T01:31:56.304Z,73583
2017-03-26T01:32:06.413Z,73582
2017-03-26T01:32:15.928Z,73583
2017-03-26T01:32:26.064Z,73579
2017-03-26T01:32:35.581Z,73580
2017-03-26T01:32:45.692Z,73582
2017-03-26T01:32:55.791Z,73578
2017-03-26T01:33:05.891Z,73578
2017-03-26T01:33:15.982Z,73579
2017-03-26T01:33:25.795Z,73579
2017-03-26T01:33:35.891Z,73581
2017-03-26T01:33:45.983Z,73582
2017-03-26T01:33:55.793Z,73578
2017-03-26T01:34:05.887Z,73577
2017-03-26T01:34:15.695Z,73579
2017-03-26T01:34:25.506Z,73578
2017-03-26T01:34:35.309Z,73576
2017-03-26T01:34:44.837Z,73572
2017-03-26T01:34:54.933Z,73576
2017-03-26T01:35:04.734Z,73574
2017-03-26T01:35:14.540Z,73570
2017-03-26T01:35:24.630Z,73574
2017-03-26T01:35:34.435Z,73577
2017-03-26T01:35:44.532Z,73571
2017-03-26T01:35:54.627Z,73572
2017-03-26T01:36:04.725Z,73573
2017-03-26T01:36:14.816Z,73569
2017-03-26T01:36:24.907Z,73574
2017-03-26T01:36:34.996Z,73574
2017-03-26T01:36:45.084Z,73574
2017-03-26T01:36:55.180Z,73577
2017-03-26T01:37:05.275Z,73571
2017-03-26T01:37:15.367Z,73572
2017-03-26T01:37:25.473Z,73573
2017-03-26T01:37:34.983Z,73572
2017-03-26T01:37:44.792Z,73575
2017-03-26T01:37:54.904Z,73574
2017-03-26T01:38:04.996Z,73574
2017-03-26T01:38:15.096Z,73572
2017-03-26T01:38:25.190Z,73572
2017-03-26T01:38:35.289Z,73573
2017-03-26T01:38:45.381Z,73570
2017-03-26T01:38:55.188Z,73571
2017-03-26T01:39:05.286Z,73569
2017-03-26T01:39:15.395Z,73569
2017-03-26T01:39:25.495Z,73575
2017-03-26T01:39:35.012Z,73573
2017-03-26T01:39:45.103Z,73570
2017-03-26T01:39:55.197Z,73570
2017-03-26T01:40:05.346Z,73568
2017-03-26T01:40:15.445Z,73571
2017-03-26T01:40:25.535Z,73571
2017-03-26T01:40:35.630Z,73570
2017-03-26T01:40:45.725Z,73572
2017-03-26T01:40:55.816Z,73569
2017-03-26T01:41:05.901Z,73569
2017-03-26T01:41:15.718Z,73567
2017-03-26T01:41:25.519Z,73564
2017-03-26T01:41:35.321Z,73564
2017-03-26T01:41:45.420Z,73573
2017-03-26T01:41:55.569Z,73570
2017-03-26T01:42:05.672Z,73569
2017-03-26T01:42:15.479Z,73568
2017-03-26T01:42:25.586Z,73568
2017-03-26T01:42:35.390Z,73563
2017-03-26T01:42:45.204Z,73566
2017-03-26T01:42:55.309Z,73569
2017-03-26T01:43:05.407Z,73565
2017-03-26T01:43:15.224Z,73565
2017-03-26T01:43:25.028Z,73570
2017-03-26T01:43:35.126Z,73569
2017-03-26T01:43:45.222Z,73566
2017-03-26T01:43:55.319Z,73564
2017-03-26T01:44:05.416Z,73564
2017-03-26T01:44:15.514Z,73564
2017-03-26T01:44:25.331Z,73559
2017-03-26T01:44:35.429Z,73560
2017-03-26T01:44:45.527Z,73562
2017-03-26T01:44:55.625Z,73562
2017-03-26T01:45:05.441Z,73561
2017-03-26T01:45:15.526Z,73562
2017-03-26T01:45:25.332Z,73559
2017-03-26T01:45:35.428Z,73562
2017-03-26T01:45:45.513Z,73565
2017-03-26T01:45:55.316Z,73560
2017-03-26T01:46:05.413Z,73558
2017-03-26T01:46:15.228Z,73556
2017-03-26T01:46:25.327Z,73560
2017-03-26T01:46:35.421Z,73557
2017-03-26T01:46:44.931Z,73559
2017-03-26T01:46:55.028Z,73559
2017-03-26T01:47:05.132Z,73551
2017-03-26T01:47:15.226Z,73558
2017-03-26T01:47:25.319Z,73557
2017-03-26T01:47:35.414Z,73552
2017-03-26T01:47:45.519Z,73551
2017-03-26T01:47:55.618Z,73552
2017-03-26T01:48:05.715Z,73552
2017-03-26T01:48:15.535Z,73560
2017-03-26T01:48:25.337Z,73564
2017-03-26T01:48:35.147Z,73560
2017-03-26T01:48:45.250Z,73560
2017-03-26T01:48:55.345Z,73560
2017-03-26T01:49:05.438Z,73559
2017-03-26T01:49:15.536Z,73553
2017-03-26T01:49:25.346Z,73557
2017-03-26T01:49:35.149Z,73551
2017-03-26T01:49:45.247Z,73554
2017-03-26T01:49:55.065Z,73554
2017-03-26T01:50:05.165Z,73554
2017-03-26T01:50:14.971Z,73545
2017-03-26T01:50:25.063Z,73547
2017-03-26T01:50:35.156Z,73547
2017-03-26T01:50:45.250Z,73552
2017-03-26T01:50:55.352Z,73553
2017-03-26T01:51:05.166Z,73552
2017-03-26T01:51:15.255Z,73548
2017-03-26T01:51:25.056Z,73548
2017-03-26T01:51:35.156Z,73553
2017-03-26T01:51:45.244Z,73553
2017-03-26T01:51:55.335Z,73545
2017-03-26T01:52:05.429Z,73551
2017-03-26T01:52:15.528Z,73556
2017-03-26T01:52:25.619Z,73547
2017-03-26T01:52:35.712Z,73541
2017-03-26T01:52:45.814Z,73550
2017-03-26T01:52:55.918Z,73541
2017-03-26T01:53:06.015Z,73542
2017-03-26T01:53:16.114Z,73546
2017-03-26T01:53:25.632Z,73544
2017-03-26T01:53:35.726Z,73543
2017-03-26T01:53:45.822Z,73549
2017-03-26T01:53:55.917Z,73549
2017-03-26T01:54:06.019Z,73552
2017-03-26T01:54:16.122Z,73551
2017-03-26T01:54:25.927Z,73545
2017-03-26T01:54:36.033Z,73550
2017-03-26T01:54:46.119Z,73548
2017-03-26T01:54:56.219Z,73544
2017-03-26T01:55:06.046Z,73544
2017-03-26T01:55:16.143Z,73543
2017-03-26T01:55:25.945Z,73539
2017-03-26T01:55:36.036Z,73545
2017-03-26T01:55:46.127Z,73544
2017-03-26T01:55:56.221Z,73543
2017-03-26T01:56:06.326Z,73543
2017-03-26T01:56:16.419Z,73540
2017-03-26T01:56:26.517Z,73538
2017-03-26T01:56:36.369Z,73543
2017-03-26T01:56:46.468Z,73541
2017-03-26T01:56:56.581Z,73542
2017-03-26T01:57:06.668Z,73544
2017-03-26T01:57:16.521Z,73547
2017-03-26T01:57:26.376Z,73545
2017-03-26T01:57:35.892Z,73542
2017-03-26T01:57:45.700Z,73541
2017-03-26T01:57:55.799Z,73538
2017-03-26T01:58:05.615Z,73541
2017-03-26T01:58:15.710Z,73542
2017-03-26T01:58:25.809Z,73537
2017-03-26T01:58:35.615Z,73540
2017-03-26T01:58:45.714Z,73540
2017-03-26T01:58:55.814Z,73539
2017-03-26T01:59:05.911Z,73534
2017-03-26T01:59:16.010Z,73534
2017-03-26T01:59:26.111Z,73539
2017-03-26T01:59:36.211Z,73535
2017-03-26T01:59:46.306Z,73539
2017-03-26T01:59:56.408Z,73540
2017-03-26T02:00:06.498Z,73540
2017-03-26T02:00:16.352Z,73537
2017-03-26T02:00:26.442Z,73539
2017-03-26T02:00:36.530Z,73540
2017-03-26T02:00:46.669Z,73541
2017-03-26T02:00:56.764Z,73538
2017-03-26T02:01:06.574Z,73533
2017-03-26T02:01:16.371Z,73531
2017-03-26T02:01:26.457Z,73535
2017-03-26T02:01:36.549Z,73535
2017-03-26T02:01:46.640Z,73534
2017-03-26T02:01:56.725Z,73534
2017-03-26T02:02:06.527Z,73528
2017-03-26T02:02:16.336Z,73527
2017-03-26T02:02:26.142Z,73534
2017-03-26T02:02:36.242Z,73533
2017-03-26T02:02:46.339Z,73534
2017-03-26T02:02:56.450Z,73538
2017-03-26T02:03:06.542Z,73539
2017-03-26T02:03:16.641Z,73535
2017-03-26T02:03:26.741Z,73539
2017-03-26T02:03:36.835Z,73539
2017-03-26T02:03:46.941Z,73538
2017-03-26T02:03:57.036Z,73540
2017-03-26T02:04:07.127Z,73542
2017-03-26T02:04:17.223Z,73537
2017-03-26T02:04:27.326Z,73537
2017-03-26T02:04:37.424Z,73540
2017-03-26T02:04:47.515Z,73535
2017-03-26T02:04:57.656Z,73542
2017-03-26T02:05:07.465Z,73538
2017-03-26T02:05:17.561Z,73537
2017-03-26T02:05:27.703Z,73536
2017-03-26T02:05:37.509Z,73538
2017-03-26T02:05:47.597Z,73535
2017-03-26T02:05:57.686Z,73532
2017-03-26T02:06:07.779Z,73533
2017-03-26T02:06:17.874Z,73531
2017-03-26T02:06:27.976Z,73530
2017-03-26T02:06:38.071Z,73533
2017-03-26T02:06:48.163Z,73533
2017-03-26T02:06:58.258Z,73533
2017-03-26T02:07:08.353Z,73537
2017-03-26T02:07:18.440Z,73534
2017-03-26T02:07:28.538Z,73532
2017-03-26T02:07:38.634Z,73532
2017-03-26T02:07:48.726Z,73534
2017-03-26T02:07:58.820Z,73533
2017-03-26T02:08:08.628Z,73533
2017-03-26T02:08:18.433Z,73534
2017-03-26T02:08:28.526Z,73531
2017-03-26T02:08:38.630Z,73533
2017-03-26T02:08:48.726Z,73529